Time;durP1;ratioP1;P1;durP2;ratioP2;P2;SDS_P1;SDS_P2;PMS_P1;PMS_P2;Temp;Humidity;BMP_temperature;BMP_pressure;BME280_temperature;BME280_humidity;BME280_pressure;Samples;Min_cycle;Max_cycle;Signal;HPM_P1;HPM_P2
2023/08/11 00:00:31;;;;;;;8.77;3.33;;;;;;;18.53;63.79;101048.41;4101211;28;20121;-67
2023/08/11 00:02:33;;;;;;;12.20;4.00;;;;;;;18.52;64.07;101051.94;4101604;28;20038;-67
2023/08/11 00:04:36;;;;;;;6.28;3.80;;;;;;;18.52;64.00;101050.16;4096306;28;20745;-67
2023/08/11 00:06:39;;;;;;;8.05;4.00;;;;;;;18.53;63.73;101053.66;4102377;28;20075;-67
2023/08/11 00:08:42;;;;;;;10.77;4.60;;;;;;;18.56;63.90;101048.38;4102014;28;20065;-67
2023/08/11 00:10:45;;;;;;;7.43;3.60;;;;;;;18.53;63.79;101043.13;4098978;28;20047;-67
2023/08/11 00:12:48;;;;;;;10.05;4.03;;;;;;;18.52;63.29;101051.94;4098078;28;20460;-67
2023/08/11 00:14:53;;;;;;;10.65;3.83;;;;;;;18.52;63.46;101047.53;4098411;28;20064;-67
2023/08/11 00:16:58;;;;;;;8.90;3.80;;;;;;;18.52;63.43;101047.53;4097474;28;20545;-67
2023/08/11 00:19:01;;;;;;;7.13;3.63;;;;;;;18.48;63.74;101057.22;4100675;28;20039;-67
2023/08/11 00:21:04;;;;;;;6.25;3.45;;;;;;;18.48;64.04;101057.22;4100497;28;20498;-67
2023/08/11 00:23:07;;;;;;;8.07;3.88;;;;;;;18.47;63.97;101052.84;4101429;28;20043;-67
2023/08/11 00:25:10;;;;;;;11.02;4.22;;;;;;;18.48;63.96;101062.47;4102904;28;20133;-67
2023/08/11 00:27:13;;;;;;;5.63;3.30;;;;;;;18.46;63.85;101063.41;4094562;28;20618;-67
2023/08/11 00:29:16;;;;;;;8.27;4.10;;;;;;;18.40;63.88;101061.69;4091475;28;20106;-67
2023/08/11 00:31:21;;;;;;;10.00;4.25;;;;;;;18.38;63.42;101060.81;4097525;28;20676;-67
2023/08/11 00:33:24;;;;;;;7.47;3.88;;;;;;;18.35;64.11;101066.09;4098392;28;20038;-67
2023/08/11 00:35:27;;;;;;;7.28;4.38;;;;;;;18.36;63.81;101067.84;4100744;28;20401;-67
2023/08/11 00:37:30;;;;;;;9.60;4.38;;;;;;;18.37;63.96;101071.34;4079611;29;20036;-67
2023/08/11 00:39:33;;;;;;;6.70;3.58;;;;;;;18.37;63.70;101069.63;4096952;28;20043;-67
2023/08/11 00:41:35;;;;;;;7.88;4.03;;;;;;;18.35;63.90;101074.00;4098634;28;20039;-67
2023/08/11 00:43:38;;;;;;;9.88;4.10;;;;;;;18.33;64.05;101069.66;4096283;28;20106;-68
2023/08/11 00:45:45;;;;;;;7.68;3.97;;;;;;;18.31;64.10;101074.91;4092177;28;20039;-67
2023/08/11 00:47:50;;;;;;;7.70;4.32;;;;;;;18.30;63.79;101075.81;4093967;28;20124;-67
2023/08/11 00:49:53;;;;;;;9.85;4.10;;;;;;;18.28;64.49;101080.19;4096749;28;20048;-67
2023/08/11 00:51:56;;;;;;;7.85;4.15;;;;;;;18.26;64.22;101084.63;4097811;28;20070;-68
2023/08/11 00:53:59;;;;;;;7.88;5.40;;;;;;;18.24;63.76;101075.88;4098335;28;20134;-67
2023/08/11 00:56:02;;;;;;;10.18;3.90;;;;;;;18.22;64.05;101075.84;4098969;28;20047;-68
2023/08/11 00:58:06;;;;;;;12.95;4.65;;;;;;;18.22;64.57;101086.38;4095090;28;20094;-67
2023/08/11 01:00:13;;;;;;;10.80;4.22;;;;;;;18.23;64.19;101082.00;4094313;28;20031;-67
2023/08/11 01:02:16;;;;;;;10.00;4.13;;;;;;;18.19;64.47;101075.88;4089272;28;20039;-67
2023/08/11 01:04:20;;;;;;;9.70;4.40;;;;;;;18.16;64.63;101075.91;4095155;28;20058;-67
2023/08/11 01:06:32;;;;;;;9.43;4.55;;;;;;;18.14;64.47;101078.53;4095876;28;20071;-67
2023/08/11 01:08:39;;;;;;;10.05;4.22;;;;;;;18.15;64.76;101079.44;4084225;28;20131;-67
2023/08/11 01:10:47;;;;;;;8.85;3.83;;;;;;;18.13;65.19;101070.66;4108273;28;20134;-67
2023/08/11 01:13:01;;;;;;;6.70;3.90;;;;;;;18.10;65.29;101063.66;4096828;28;20043;-67
2023/08/11 01:15:10;;;;;;;8.77;3.78;;;;;;;18.06;65.18;101067.22;4096115;28;20478;-67
2023/08/11 01:17:18;;;;;;;9.75;4.30;;;;;;;18.03;65.45;101061.94;4094555;28;20039;-67
2023/08/11 01:19:28;;;;;;;10.45;5.35;;;;;;;18.01;65.81;101063.72;4096146;28;20601;-67
2023/08/11 01:21:34;;;;;;;9.05;4.30;;;;;;;18.02;65.70;101062.88;4093788;28;20425;-67
2023/08/11 01:23:38;;;;;;;9.90;4.90;;;;;;;18.03;66.08;101059.31;4109945;28;20043;-67
2023/08/11 01:25:41;;;;;;;9.77;4.40;;;;;;;18.01;66.21;101060.25;4096214;28;20050;-67
2023/08/11 01:27:45;;;;;;;8.15;4.07;;;;;;;18.02;66.10;101061.97;4101604;28;20071;-67
2023/08/11 01:29:51;;;;;;;11.85;4.22;;;;;;;18.02;65.99;101060.22;4094712;28;20098;-67
2023/08/11 01:31:53;;;;;;;8.48;3.85;;;;;;;17.99;66.44;101062.88;4080130;29;20047;-67
2023/08/11 01:33:56;;;;;;;7.15;4.25;;;;;;;17.98;67.11;101058.50;4096011;28;20533;-67
2023/08/11 01:35:59;;;;;;;6.95;4.28;;;;;;;17.98;66.90;101060.25;4082048;28;20537;-67
2023/08/11 01:38:02;;;;;;;14.70;4.90;;;;;;;17.98;67.04;101061.13;4110094;28;20452;-68
2023/08/11 01:40:10;;;;;;;8.07;4.38;;;;;;;17.99;67.28;101059.34;4095988;28;20126;-67
2023/08/11 01:42:13;;;;;;;10.38;4.25;;;;;;;17.95;67.41;101061.16;4095880;28;20085;-67
2023/08/11 01:44:17;;;;;;;9.20;4.18;;;;;;;17.93;67.64;101058.53;4095129;28;20047;-68
2023/08/11 01:46:21;;;;;;;11.52;4.47;;;;;;;17.95;67.20;101061.16;4094083;28;20045;-67
2023/08/11 01:48:25;;;;;;;10.70;5.00;;;;;;;17.87;66.99;101062.91;4094003;28;20101;-67
2023/08/11 01:50:29;;;;;;;10.23;4.82;;;;;;;17.82;67.21;101064.72;4093715;28;20486;-67
2023/08/11 01:52:34;;;;;;;7.72;4.13;;;;;;;17.80;67.15;101059.47;4096056;28;20476;-67
2023/08/11 01:54:38;;;;;;;8.80;4.82;;;;;;;17.79;67.09;101057.72;4086407;28;20095;-67
2023/08/11 01:56:44;;;;;;;7.88;4.03;;;;;;;17.75;66.75;101064.72;4095062;28;20579;-67
2023/08/11 01:58:47;;;;;;;8.40;4.20;;;;;;;17.72;66.82;101058.63;4086055;29;20436;-67
2023/08/11 02:00:50;;;;;;;7.32;4.07;;;;;;;17.71;66.75;101052.50;4095571;28;20046;-67
2023/08/11 02:02:53;;;;;;;5.68;3.83;;;;;;;17.69;67.23;101054.25;4097069;28;20049;-68
2023/08/11 02:04:58;;;;;;;9.90;4.47;;;;;;;17.63;67.82;101051.66;4094086;28;20036;-67
2023/08/11 02:07:01;;;;;;;7.80;3.90;;;;;;;17.61;67.95;101051.69;4074163;29;20105;-67
2023/08/11 02:09:07;;;;;;;7.90;4.15;;;;;;;17.60;68.13;101044.66;4107949;28;20294;-67
2023/08/11 02:11:10;;;;;;;10.10;4.68;;;;;;;17.58;68.18;101053.44;4098464;28;20050;-67
2023/08/11 02:13:15;;;;;;;7.57;4.50;;;;;;;17.60;67.96;101054.31;4093818;28;20517;-67
2023/08/11 02:15:18;;;;;;;9.60;5.07;;;;;;;17.58;68.25;101051.69;4093016;28;20027;-67
2023/08/11 02:17:22;;;;;;;7.97;4.85;;;;;;;17.56;68.55;101052.56;4092491;28;20040;-68
2023/08/11 02:19:24;;;;;;;9.38;4.90;;;;;;;17.56;68.27;101053.44;4101772;28;20122;-67
2023/08/11 02:21:28;;;;;;;8.73;5.68;;;;;;;17.55;68.45;101048.19;4100483;28;20507;-67
2023/08/11 02:23:31;;;;;;;8.10;5.78;;;;;;;17.53;68.76;101050.81;4098758;28;20413;-67
2023/08/11 02:25:34;;;;;;;9.23;5.55;;;;;;;17.47;69.49;101047.38;4098543;23;20039;-64
2023/08/11 02:27:37;;;;;;;9.48;5.32;;;;;;;17.43;69.64;101047.41;4129159;28;20404;-64
2023/08/11 02:29:41;;;;;;;11.02;4.85;;;;;;;17.41;69.70;101054.38;4112342;28;20039;-64
2023/08/11 02:31:44;;;;;;;8.75;4.85;;;;;;;17.42;69.77;101056.16;4112144;28;20073;-64
2023/08/11 02:33:47;;;;;;;9.77;4.82;;;;;;;17.41;69.86;101053.53;4113869;28;20061;-63
2023/08/11 02:35:50;;;;;;;10.23;6.47;;;;;;;17.45;69.58;101044.75;4114761;28;20039;-64
2023/08/11 02:37:52;;;;;;;9.13;5.57;;;;;;;17.41;69.84;101041.25;4131198;28;20038;-63
2023/08/11 02:39:55;;;;;;;12.43;6.25;;;;;;;17.38;69.92;101053.53;4114779;28;20532;-64
2023/08/11 02:41:58;;;;;;;8.07;5.90;;;;;;;17.36;69.91;101050.03;4132281;28;20416;-64
2023/08/11 02:44:01;;;;;;;14.75;9.73;;;;;;;17.34;70.11;101046.56;4114311;28;20125;-64
2023/08/11 02:46:06;;;;;;;20.70;16.25;;;;;;;17.32;70.23;101045.66;4114680;28;20193;-64
2023/08/11 02:48:09;;;;;;;24.95;17.50;;;;;;;17.31;70.14;101044.81;4113494;28;20544;-63
2023/08/11 02:50:13;;;;;;;22.25;16.17;;;;;;;17.34;70.13;101046.56;4114561;28;20142;-64
2023/08/11 02:52:16;;;;;;;22.92;19.55;;;;;;;17.35;70.18;101046.53;4113931;28;20047;-63
2023/08/11 02:54:19;;;;;;;27.88;19.70;;;;;;;17.30;70.38;101042.19;4127125;28;20105;-63
2023/08/11 02:56:22;;;;;;;30.77;21.38;;;;;;;17.28;70.25;101048.31;4131093;28;20040;-64
2023/08/11 02:58:25;;;;;;;24.20;18.90;;;;;;;17.25;70.29;101043.06;4098523;29;20054;-64
2023/08/11 03:00:28;;;;;;;31.30;24.08;;;;;;;17.20;70.40;101043.97;4127126;28;20583;-63
2023/08/11 03:02:32;;;;;;;29.15;24.45;;;;;;;17.20;70.20;101047.47;4130616;28;20046;-64
2023/08/11 03:04:37;;;;;;;30.38;24.98;;;;;;;17.17;70.57;101046.59;4111808;28;20547;-64
2023/08/11 03:06:39;;;;;;;25.05;20.67;;;;;;;17.14;70.54;101047.47;4112149;28;20063;-64
2023/08/11 03:08:41;;;;;;;29.42;21.02;;;;;;;17.10;70.68;101046.63;4112644;28;20031;-64
2023/08/11 03:10:45;;;;;;;27.55;20.58;;;;;;;17.06;70.78;101052.78;4113772;28;20122;-64
2023/08/11 03:13:02;;;;;;;25.90;22.30;;;;;;;17.05;70.83;101045.75;4111895;28;20041;-64
2023/08/11 03:15:07;;;;;;;32.25;21.42;;;;;;;17.06;70.93;101052.78;4098858;29;20035;-63
2023/08/11 03:17:13;;;;;;;28.02;22.25;;;;;;;17.02;71.02;101056.28;4107574;28;20501;-64
2023/08/11 03:19:17;;;;;;;22.13;19.08;;;;;;;17.04;71.15;101053.66;4114272;28;20050;-64
2023/08/11 03:21:20;;;;;;;31.52;21.45;;;;;;;17.05;71.25;101045.75;4114476;28;20035;-63
2023/08/11 03:23:24;;;;;;;31.45;20.25;;;;;;;17.08;71.22;101051.03;4114245;28;20323;-64
2023/08/11 03:25:28;;;;;;;25.90;18.48;;;;;;;17.12;70.95;101045.75;4113321;28;20035;-64
2023/08/11 03:27:31;;;;;;;24.95;17.80;;;;;;;17.10;71.24;101048.41;4113285;28;20039;-64
2023/08/11 03:29:34;;;;;;;23.63;18.60;;;;;;;17.05;71.82;101048.38;4123376;28;20061;-64
2023/08/11 03:31:37;;;;;;;25.33;20.10;;;;;;;16.98;71.66;101045.78;4129096;28;20046;-64
2023/08/11 03:33:40;;;;;;;28.00;20.05;;;;;;;17.00;71.58;101044.91;4112346;28;20512;-64
2023/08/11 03:35:49;;;;;;;24.80;16.85;;;;;;;17.04;71.30;101051.03;4122571;28;20098;-64
2023/08/11 03:37:51;;;;;;;21.65;16.85;;;;;;;17.04;71.43;101053.66;4113883;28;20043;-64
2023/08/11 03:39:53;;;;;;;17.60;13.38;;;;;;;17.02;71.36;101051.03;4130579;28;20038;-64
2023/08/11 03:41:56;;;;;;;21.02;11.88;;;;;;;16.98;71.60;101044.06;4089339;29;20039;-64
2023/08/11 03:44:00;;;;;;;13.52;10.13;;;;;;;16.95;71.24;101051.91;4113553;28;20074;-65
2023/08/11 03:46:06;;;;;;;15.27;11.47;;;;;;;16.94;71.19;101058.06;4112735;28;20481;-64
2023/08/11 03:48:10;;;;;;;14.80;10.68;;;;;;;16.91;71.11;101065.97;4121852;28;20155;-64
2023/08/11 03:50:13;;;;;;;17.58;10.52;;;;;;;16.91;70.69;101058.09;4114419;28;20038;-64
2023/08/11 03:52:17;;;;;;;15.70;10.27;;;;;;;16.87;70.77;101069.44;4131511;28;20050;-64
2023/08/11 03:54:21;;;;;;;13.57;10.13;;;;;;;16.84;70.88;101064.19;4109328;28;20154;-64
2023/08/11 03:56:41;;;;;;;15.23;11.23;;;;;;;16.82;71.13;101079.06;4112021;28;20496;-64
2023/08/11 03:58:44;;;;;;;16.17;10.18;;;;;;;16.82;71.24;101072.06;4127081;28;20504;-64
2023/08/11 04:00:47;;;;;;;14.68;11.13;;;;;;;16.86;71.15;101075.56;4125588;28;20045;-64
2023/08/11 04:02:51;;;;;;;16.70;10.52;;;;;;;16.85;71.25;101072.06;4113275;28;20406;-64
2023/08/11 04:04:55;;;;;;;11.70;9.45;;;;;;;16.86;71.26;101075.56;4111886;28;20030;-64
2023/08/11 04:06:57;;;;;;;20.00;9.98;;;;;;;16.88;71.29;101079.06;4112994;28;20098;-64
2023/08/11 04:09:02;;;;;;;15.05;10.27;;;;;;;16.89;71.35;101075.59;4128254;28;20054;-64
2023/08/11 04:11:05;;;;;;;15.38;9.88;;;;;;;16.89;71.45;101075.59;4113214;28;20130;-64
2023/08/11 04:13:08;;;;;;;12.90;9.13;;;;;;;16.89;71.41;101073.84;4111789;28;20042;-65
2023/08/11 04:15:11;;;;;;;15.40;9.88;;;;;;;16.90;71.54;101072.94;4112556;28;20042;-64
2023/08/11 04:17:16;;;;;;;15.75;9.55;;;;;;;16.93;71.41;101074.69;4126696;28;20105;-64
2023/08/11 04:19:19;;;;;;;;;;;;;;;16.83;71.78;101078.19;4130257;28;20045;-64
2023/08/11 04:21:23;;;;;;;15.43;8.40;;;;;;;16.78;72.07;101067.69;4113218;28;19921;-64
2023/08/11 04:23:26;;;;;;;15.00;7.85;;;;;;;16.77;72.08;101075.59;4094423;29;20039;-63
2023/08/11 04:25:30;;;;;;;9.15;6.40;;;;;;;16.80;71.67;101072.94;4125395;28;20403;-64
2023/08/11 04:27:33;;;;;;;7.85;5.68;;;;;;;16.81;71.55;101072.09;4097867;28;20133;-65
2023/08/11 04:29:36;;;;;;;9.32;6.18;;;;;;;16.85;71.42;101071.16;4111370;28;20038;-64
2023/08/11 04:31:40;;;;;;;10.02;6.45;;;;;;;16.88;71.52;101076.44;4113918;28;20612;-64
2023/08/11 04:33:43;;;;;;;10.73;6.38;;;;;;;16.87;71.30;101069.44;4112885;28;20647;-64
2023/08/11 04:35:48;;;;;;;8.23;5.30;;;;;;;16.88;71.33;101069.47;4113099;28;20059;-64
2023/08/11 04:37:51;;;;;;;11.52;6.95;;;;;;;16.88;71.14;101068.56;4097147;28;20391;-64
2023/08/11 04:39:56;;;;;;;8.85;6.07;;;;;;;16.87;71.25;101061.56;4127053;28;20390;-64
2023/08/11 04:42:00;;;;;;;7.40;5.45;;;;;;;16.89;71.11;101071.22;4126014;28;20046;-65
2023/08/11 04:44:04;;;;;;;11.52;6.25;;;;;;;16.85;71.42;101072.06;4113428;28;20039;-65
2023/08/11 04:46:07;;;;;;;7.35;5.05;;;;;;;16.88;71.30;101079.06;4113010;28;20038;-64
2023/08/11 04:48:11;;;;;;;9.10;5.63;;;;;;;16.90;71.24;101082.59;4110261;28;20046;-64
2023/08/11 04:50:19;;;;;;;9.18;5.03;;;;;;;16.91;70.99;101084.34;4113141;28;20059;-64
2023/08/11 04:52:27;;;;;;;8.48;4.85;;;;;;;16.95;71.17;101074.69;4113008;28;20058;-64
2023/08/11 04:54:29;;;;;;;8.20;5.00;;;;;;;16.96;71.34;101082.56;4111320;28;20201;-65
2023/08/11 04:56:32;;;;;;;8.45;4.75;;;;;;;16.98;71.24;101085.19;4111813;28;20046;-64
2023/08/11 04:58:39;;;;;;;8.48;5.10;;;;;;;17.02;71.03;101093.06;4118723;28;20042;-64
2023/08/11 05:00:41;;;;;;;6.68;4.63;;;;;;;17.02;71.16;101087.81;4128770;28;20042;-64
2023/08/11 05:02:45;;;;;;;6.75;4.22;;;;;;;17.05;71.26;101090.41;4107840;28;20580;-64
2023/08/11 05:04:48;;;;;;;7.85;4.80;;;;;;;17.06;71.27;101084.28;4130235;28;20129;-64
2023/08/11 05:06:51;;;;;;;6.90;4.75;;;;;;;17.09;71.49;101088.69;4128210;28;20510;-64
2023/08/11 05:08:54;;;;;;;8.30;4.88;;;;;;;17.12;71.34;101082.53;4129354;28;20058;-64
2023/08/11 05:10:57;;;;;;;5.75;4.15;;;;;;;17.09;71.57;101084.28;4118014;28;20038;-64
2023/08/11 05:13:00;;;;;;;7.15;4.82;;;;;;;17.11;71.19;101089.53;4127213;28;20129;-64
2023/08/11 05:15:05;;;;;;;7.53;4.15;;;;;;;17.14;71.33;101080.78;4108977;28;20440;-64
2023/08/11 05:17:09;;;;;;;8.45;4.93;;;;;;;17.14;71.20;101092.16;4111735;28;20043;-64
2023/08/11 05:19:13;;;;;;;8.32;4.57;;;;;;;17.16;71.28;101089.53;4129497;28;20046;-64
2023/08/11 05:21:17;;;;;;;7.03;4.30;;;;;;;17.19;71.07;101090.41;4129292;28;20121;-64
2023/08/11 05:23:20;;;;;;;;;;;;;;;17.12;71.33;101098.31;4130586;28;20030;-64
2023/08/11 05:25:26;;;;;;;8.95;4.55;;;;;;;17.16;71.46;101095.66;4129517;28;20000;-64
2023/08/11 05:27:29;;;;;;;9.73;4.85;;;;;;;17.22;71.45;101107.91;4128762;28;20453;-64
2023/08/11 05:29:33;;;;;;;7.75;4.95;;;;;;;17.27;71.32;101108.75;4110649;28;20101;-64
2023/08/11 05:31:37;;;;;;;7.90;4.38;;;;;;;17.30;71.26;101098.22;4129970;28;20121;-64
2023/08/11 05:33:40;;;;;;;8.85;5.25;;;;;;;17.35;71.61;101099.09;4130039;28;20041;-64
2023/08/11 05:35:43;;;;;;;9.93;5.40;;;;;;;17.38;71.61;101104.34;4128203;28;20035;-64
2023/08/11 05:37:47;;;;;;;8.30;4.28;;;;;;;17.43;71.64;101102.59;4127752;28;20056;-64
2023/08/11 05:39:50;;;;;;;9.80;4.88;;;;;;;17.47;71.90;101094.69;4129696;28;20472;-64
2023/08/11 05:41:53;;;;;;;11.38;4.43;;;;;;;17.52;71.99;101092.91;4128004;28;20141;-64
2023/08/11 05:43:56;;;;;;;8.35;4.30;;;;;;;17.56;71.96;101098.13;4128721;28;20035;-64
2023/08/11 05:45:58;;;;;;;8.98;4.80;;;;;;;17.60;72.21;101096.38;4125972;28;20070;-65
2023/08/11 05:48:03;;;;;;;7.03;4.32;;;;;;;17.65;72.08;101107.72;4111918;28;20038;-64
2023/08/11 05:50:07;;;;;;;10.43;5.43;;;;;;;17.71;72.19;101099.84;4129025;28;20038;-64
2023/08/11 05:52:10;;;;;;;12.73;5.15;;;;;;;17.75;72.06;101092.78;4112403;28;20070;-64
2023/08/11 05:54:13;;;;;;;7.47;5.15;;;;;;;17.79;71.64;101103.28;4129306;28;20042;-64
2023/08/11 05:56:16;;;;;;;8.88;5.30;;;;;;;17.85;71.11;101104.16;4096372;29;20058;-64
2023/08/11 05:58:19;;;;;;;7.13;4.78;;;;;;;17.91;71.31;101096.25;4124986;28;20042;-64
2023/08/11 06:00:23;;;;;;;11.75;5.85;;;;;;;17.98;69.83;101103.22;4112259;28;20034;-64
2023/08/11 06:02:26;;;;;;;10.38;5.60;;;;;;;18.07;69.57;101099.66;4126422;28;20062;-64
2023/08/11 06:04:30;;;;;;;13.07;5.85;;;;;;;18.14;69.11;101096.09;4112477;28;20066;-64
2023/08/11 06:06:33;;;;;;;11.70;7.32;;;;;;;18.23;68.57;101100.44;4111348;28;20508;-64
2023/08/11 06:08:36;;;;;;;10.70;5.90;;;;;;;18.29;66.41;101097.75;4132581;28;20480;-64
2023/08/11 06:10:39;;;;;;;12.02;6.63;;;;;;;18.34;66.52;101097.72;4114747;28;20046;-64
2023/08/11 06:12:41;;;;;;;10.27;5.40;;;;;;;18.41;66.18;101104.66;4130038;28;20408;-65
2023/08/11 06:14:44;;;;;;;10.18;5.50;;;;;;;18.46;66.29;101100.25;4130476;28;20062;-64
2023/08/11 06:16:47;;;;;;;13.75;5.85;;;;;;;18.53;66.15;101096.69;4115023;28;20039;-64
2023/08/11 06:18:50;;;;;;;7.40;4.63;;;;;;;18.57;65.81;101098.38;4123053;28;20038;-64
2023/08/11 06:20:54;;;;;;;9.82;6.60;;;;;;;18.64;65.24;101096.59;4132736;28;20412;-64
2023/08/11 06:22:57;;;;;;;12.00;6.47;;;;;;;18.70;64.54;101093.03;4129350;28;20112;-64
2023/08/11 06:25:00;;;;;;;10.40;6.50;;;;;;;18.73;64.21;101095.63;4130777;28;20069;-64
2023/08/11 06:27:04;;;;;;;9.88;6.25;;;;;;;18.80;63.78;101102.59;4130915;28;20043;-64
2023/08/11 06:29:07;;;;;;;11.98;6.30;;;;;;;18.83;63.70;101095.50;4129813;28;20504;-64
2023/08/11 06:31:10;;;;;;;13.75;6.03;;;;;;;18.90;63.80;101098.13;4132379;28;20153;-64
2023/08/11 06:33:13;;;;;;;10.45;6.05;;;;;;;18.98;63.29;101094.53;4099165;29;20051;-64
2023/08/11 06:35:16;;;;;;;10.10;6.28;;;;;;;19.04;63.08;101096.25;4129233;28;20038;-64
2023/08/11 06:37:20;;;;;;;9.82;5.47;;;;;;;19.10;62.99;101096.16;4115050;28;20496;-64
2023/08/11 06:39:23;;;;;;;11.80;6.68;;;;;;;19.16;62.21;101097.88;4132417;28;20121;-64
2023/08/11 06:41:26;;;;;;;10.20;6.07;;;;;;;19.22;62.27;101097.78;4132147;28;20034;-65
2023/08/11 06:43:29;;;;;;;8.20;5.18;;;;;;;19.26;62.81;101094.22;4132115;28;20440;-64
2023/08/11 06:45:32;;;;;;;8.45;5.82;;;;;;;19.30;63.27;101081.88;4115333;28;20717;-64
2023/08/11 06:47:36;;;;;;;12.50;7.00;;;;;;;19.45;62.32;101094.88;4131050;28;20134;-64
2023/08/11 06:49:39;;;;;;;12.50;6.78;;;;;;;19.50;61.66;101103.59;4132173;28;20034;-64
2023/08/11 06:51:41;;;;;;;11.98;6.38;;;;;;;19.53;61.77;101103.56;4131934;28;20492;-64
2023/08/11 06:53:45;;;;;;;11.98;6.70;;;;;;;19.56;61.78;101101.78;4099128;29;20039;-64
2023/08/11 06:55:48;;;;;;;10.13;6.68;;;;;;;19.63;61.13;101108.72;4131852;28;20579;-64
2023/08/11 06:57:50;;;;;;;11.15;6.78;;;;;;;19.73;61.37;101115.63;4131387;28;20038;-64
2023/08/11 06:59:53;;;;;;;9.07;6.63;;;;;;;19.82;60.58;101120.81;4131853;28;20038;-64
2023/08/11 07:01:56;;;;;;;9.35;5.57;;;;;;;19.85;60.46;101119.91;4127392;28;20062;-64
2023/08/11 07:03:59;;;;;;;10.30;5.57;;;;;;;19.91;60.44;101121.59;4131734;28;20064;-64
2023/08/11 07:06:04;;;;;;;12.40;6.80;;;;;;;19.98;60.03;101118.81;4131121;28;20072;-64
2023/08/11 07:08:07;;;;;;;9.57;5.28;;;;;;;20.02;60.35;101120.53;4130522;28;20035;-64
2023/08/11 07:10:12;;;;;;;8.63;5.13;;;;;;;20.08;60.51;101122.22;4115157;28;20039;-64
2023/08/11 07:12:15;;;;;;;8.32;5.25;;;;;;;20.13;60.27;101130.06;4114382;28;20051;-64
2023/08/11 07:14:18;;;;;;;9.80;6.15;;;;;;;20.21;59.83;101128.19;4131509;28;20084;-65
2023/08/11 07:16:21;;;;;;;9.23;5.30;;;;;;;20.27;60.02;101133.38;4114178;28;20588;-64
2023/08/11 07:18:24;;;;;;;12.90;6.47;;;;;;;20.33;59.94;101129.78;4119177;28;20038;-64
2023/08/11 07:20:27;;;;;;;13.77;7.70;;;;;;;20.47;59.26;101135.72;4128519;28;20030;-64
2023/08/11 07:22:30;;;;;;;15.55;8.10;;;;;;;20.54;58.41;101129.41;4114603;28;20046;-64
2023/08/11 07:24:33;;;;;;;16.83;8.77;;;;;;;20.60;57.31;101132.84;4112156;28;20045;-64
2023/08/11 07:26:37;;;;;;;23.98;7.30;;;;;;;20.51;57.63;101129.44;4120047;28;20043;-64
2023/08/11 07:28:41;;;;;;;13.57;6.28;;;;;;;20.52;58.35;101131.22;4130642;28;20081;-64
2023/08/11 07:30:44;;;;;;;12.80;6.13;;;;;;;20.54;59.46;101142.59;4131346;28;20069;-64
2023/08/11 07:32:47;;;;;;;13.07;5.97;;;;;;;20.62;58.74;101134.56;4131985;28;20034;-64
2023/08/11 07:34:49;;;;;;;14.57;6.78;;;;;;;20.70;58.96;101132.69;4111479;28;20082;-65
2023/08/11 07:36:52;;;;;;;24.55;9.40;;;;;;;20.78;58.40;101135.22;4097232;29;20047;-64
2023/08/11 07:38:55;;;;;;;12.82;7.28;;;;;;;20.87;58.58;101142.13;4108617;28;20126;-64
2023/08/11 07:41:18;;;;;;;25.50;10.93;;;;;;;20.94;58.56;101141.13;4109740;28;20051;-64
2023/08/11 07:43:22;;;;;;;22.40;10.40;;;;;;;20.99;58.48;101133.09;4131280;28;20126;-64
2023/08/11 07:45:25;;;;;;;25.67;9.70;;;;;;;21.04;58.55;101140.03;4113923;28;20097;-64
2023/08/11 07:47:28;;;;;;;27.95;10.60;;;;;;;21.12;58.00;101146.97;4129835;28;20128;-64
2023/08/11 07:49:31;;;;;;;21.10;10.25;;;;;;;21.19;57.99;101141.53;4131009;28;20058;-64
2023/08/11 07:51:34;;;;;;;19.92;8.50;;;;;;;21.25;57.72;101141.41;4131539;28;20463;-64
2023/08/11 07:53:38;;;;;;;14.55;8.07;;;;;;;21.36;57.60;101132.38;4129845;28;20035;-64
2023/08/11 07:55:41;;;;;;;14.32;7.20;;;;;;;21.40;58.12;101144.66;4130258;28;20061;-64
2023/08/11 07:57:46;;;;;;;9.93;6.38;;;;;;;21.44;56.84;101143.69;4113022;28;20525;-64
2023/08/11 07:59:51;;;;;;;16.65;8.00;;;;;;;21.51;56.63;101139.16;4131245;28;20062;-64
2023/08/11 08:01:54;;;;;;;18.10;6.03;;;;;;;21.53;56.32;101138.22;4130136;28;20129;-65
2023/08/11 08:03:57;;;;;;;10.18;5.30;;;;;;;21.57;57.04;101141.72;4113608;28;20475;-64
2023/08/11 08:06:00;;;;;;;11.40;5.38;;;;;;;21.55;55.00;101144.38;4129649;28;20046;-64
2023/08/11 08:08:05;;;;;;;12.57;5.65;;;;;;;21.63;55.12;101138.94;4129994;28;20508;-64
2023/08/11 08:10:09;;;;;;;15.25;8.18;;;;;;;21.69;55.55;101135.28;4129521;28;20129;-64
2023/08/11 08:12:15;;;;;;;13.90;7.18;;;;;;;21.72;55.75;101140.50;4127946;28;20436;-64
2023/08/11 08:14:19;;;;;;;15.40;7.00;;;;;;;21.81;55.73;101142.94;4094300;29;20043;-64
2023/08/11 08:16:23;;;;;;;10.80;5.95;;;;;;;21.89;55.64;101132.19;4129645;28;20031;-64
2023/08/11 08:18:26;;;;;;;17.05;6.43;;;;;;;21.89;55.83;101133.06;4130644;28;20035;-64
2023/08/11 08:20:31;;;;;;;19.67;6.75;;;;;;;21.97;55.77;101130.25;4113559;28;20043;-64
2023/08/11 08:22:33;;;;;;;13.88;5.32;;;;;;;22.07;55.76;101137.06;4130985;28;20053;-64
2023/08/11 08:24:36;;;;;;;12.05;5.47;;;;;;;22.19;55.67;101130.63;4128340;28;20039;-64
2023/08/11 08:26:39;;;;;;;16.63;5.57;;;;;;;22.23;55.53;101131.44;4143022;23;20042;-63
2023/08/11 08:28:42;;;;;;;14.68;5.80;;;;;;;22.30;55.08;101131.25;4112716;28;20035;-63
2023/08/11 08:30:45;;;;;;;16.63;5.22;;;;;;;22.36;55.25;101134.69;4111699;28;20066;-64
2023/08/11 08:32:49;;;;;;;14.23;5.60;;;;;;;22.59;53.42;101132.34;4130251;28;20030;-63
2023/08/11 08:34:52;;;;;;;12.93;4.65;;;;;;;22.61;53.35;101132.31;4130409;28;20058;-63
2023/08/11 08:36:55;;;;;;;8.40;4.53;;;;;;;22.61;54.27;101133.16;4120793;28;20113;-63
2023/08/11 08:38:58;;;;;;;7.00;3.85;;;;;;;22.68;54.03;101131.25;4112096;28;20047;-63
2023/08/11 08:41:01;;;;;;;9.27;4.20;;;;;;;22.78;53.13;101130.09;4108551;28;20130;-63
2023/08/11 08:43:04;;;;;;;8.27;3.78;;;;;;;22.80;52.68;101124.75;4111542;28;20503;-63
2023/08/11 08:45:09;;;;;;;6.97;3.30;;;;;;;22.78;52.53;101119.50;4112088;28;20317;-63
2023/08/11 08:47:13;;;;;;;8.57;3.97;;;;;;;22.91;53.09;101129.75;4105444;28;20485;-63
2023/08/11 08:49:22;;;;;;;11.13;4.40;;;;;;;22.97;52.71;101126.97;4109742;28;20050;-63
2023/08/11 08:51:26;;;;;;;6.68;4.10;;;;;;;23.00;52.88;101125.09;4095588;29;20320;-64
2023/08/11 08:53:29;;;;;;;6.15;3.90;;;;;;;23.08;52.10;101127.53;4108789;28;20042;-64
2023/08/11 08:55:32;;;;;;;9.60;4.38;;;;;;;23.16;51.96;101127.38;4110561;28;20058;-64
2023/08/11 08:57:35;;;;;;;5.63;3.40;;;;;;;23.25;51.73;101121.81;4112376;28;20373;-64
2023/08/11 08:59:38;;;;;;;7.28;4.72;;;;;;;23.35;51.56;101123.28;4114006;28;20035;-64
2023/08/11 09:01:42;;;;;;;7.28;3.85;;;;;;;23.57;51.37;101129.75;4107404;28;20078;-64
2023/08/11 09:03:46;;;;;;;6.68;3.20;;;;;;;23.59;51.45;101118.16;4109266;28;20394;-64
2023/08/11 09:05:51;;;;;;;5.55;3.53;;;;;;;23.60;51.14;101114.59;4110793;28;20571;-64
2023/08/11 09:08:03;;;;;;;7.00;3.17;;;;;;;23.54;50.65;101125.41;4107230;28;20105;-64
2023/08/11 09:10:09;;;;;;;8.10;3.63;;;;;;;23.58;50.84;101126.19;4095381;29;20591;-64
2023/08/11 09:12:12;;;;;;;6.65;3.17;;;;;;;23.69;50.34;101121.44;4110452;28;20039;-64
2023/08/11 09:14:17;;;;;;;8.60;3.93;;;;;;;23.80;50.52;101121.97;4091422;29;20963;-64
2023/08/11 09:16:23;;;;;;;9.35;3.75;;;;;;;23.93;50.18;101117.16;4111923;28;20051;-64
2023/08/11 09:18:26;;;;;;;5.15;3.22;;;;;;;24.03;50.56;101118.66;4095083;29;20062;-64
2023/08/11 09:20:29;;;;;;;7.95;3.28;;;;;;;24.13;50.31;101128.97;4107727;28;20138;-64
2023/08/11 09:22:37;;;;;;;8.95;3.30;;;;;;;24.16;49.95;101115.59;4113330;28;20043;-64
2023/08/11 09:24:40;;;;;;;7.82;3.40;;;;;;;24.40;48.99;101127.22;4105922;28;20513;-64
2023/08/11 09:26:44;;;;;;;6.32;3.03;;;;;;;24.40;48.99;101127.22;4107530;28;20128;-63
2023/08/11 09:28:48;;;;;;;8.25;3.38;;;;;;;24.44;49.67;101123.53;4096588;29;20054;-64
2023/08/11 09:30:51;;;;;;;6.75;3.53;;;;;;;24.66;49.83;101113.09;4112151;28;20473;-64